sensor_id;sensor_type;location;lat;lon;timestamp;pressure;altitude;pressure_sealevel;temperature;humidity
54407;BME280;40313;50.308;30.374;2023-02-18T00:00:12;99075.25;;;0.26;100.00
54407;BME280;40313;50.308;30.374;2023-02-18T00:02:39;99072.63;;;0.27;100.00
54407;BME280;40313;50.308;30.374;2023-02-18T00:05:07;99059.81;;;0.27;100.00
54407;BME280;40313;50.308;30.374;2023-02-18T00:07:34;99055.50;;;0.28;100.00
54407;BME280;40313;50.308;30.374;2023-02-18T00:10:00;99052.94;;;0.28;100.00
54407;BME280;40313;50.308;30.374;2023-02-18T00:12:29;99044.47;;;0.26;100.00
54407;BME280;40313;50.308;30.374;2023-02-18T00:14:56;99041.00;;;0.27;100.00
54407;BME280;40313;50.308;30.374;2023-02-18T00:17:22;99037.59;;;0.26;100.00
54407;BME280;40313;50.308;30.374;2023-02-18T00:19:49;99029.84;;;0.28;100.00
54407;BME280;40313;50.308;30.374;2023-02-18T00:22:17;99017.91;;;0.27;100.00
54407;BME280;40313;50.308;30.374;2023-02-18T00:24:43;99014.47;;;0.28;100.00
54407;BME280;40313;50.308;30.374;2023-02-18T00:27:10;99011.13;;;0.26;100.00
54407;BME280;40313;50.308;30.374;2023-02-18T00:29:36;99000.84;;;0.26;100.00
54407;BME280;40313;50.308;30.374;2023-02-18T00:32:03;98993.13;;;0.27;100.00
54407;BME280;40313;50.308;30.374;2023-02-18T00:34:29;98984.56;;;0.27;100.00
54407;BME280;40313;50.308;30.374;2023-02-18T00:36:56;98973.47;;;0.26;100.00
54407;BME280;40313;50.308;30.374;2023-02-18T00:39:24;98957.25;;;0.26;100.00
54407;BME280;40313;50.308;30.374;2023-02-18T00:41:51;98951.22;;;0.27;100.00
54407;BME280;40313;50.308;30.374;2023-02-18T00:44:17;98940.13;;;0.26;100.00
54407;BME280;40313;50.308;30.374;2023-02-18T00:46:43;98943.56;;;0.25;100.00
54407;BME280;40313;50.308;30.374;2023-02-18T00:49:12;98929.03;;;0.26;100.00
54407;BME280;40313;50.308;30.374;2023-02-18T00:51:38;98926.47;;;0.24;100.00
54407;BME280;40313;50.308;30.374;2023-02-18T00:54:05;98919.69;;;0.23;100.00
54407;BME280;40313;50.308;30.374;2023-02-18T00:56:33;98914.53;;;0.23;100.00
54407;BME280;40313;50.308;30.374;2023-02-18T00:58:59;98898.28;;;0.23;100.00
54407;BME280;40313;50.308;30.374;2023-02-18T01:01:26;98899.16;;;0.23;100.00
54407;BME280;40313;50.308;30.374;2023-02-18T01:03:53;98886.34;;;0.23;100.00
54407;BME280;40313;50.308;30.374;2023-02-18T01:06:19;98878.59;;;0.25;100.00
54407;BME280;40313;50.308;30.374;2023-02-18T01:08:47;98865.81;;;0.23;100.00
54407;BME280;40313;50.308;30.374;2023-02-18T01:11:14;98870.91;;;0.25;100.00
54407;BME280;40313;50.308;30.374;2023-02-18T01:13:42;98850.34;;;0.26;100.00
54407;BME280;40313;50.308;30.374;2023-02-18T01:16:09;98847.78;;;0.26;100.00
54407;BME280;40313;50.308;30.374;2023-02-18T01:18:36;98840.13;;;0.25;100.00
54407;BME280;40313;50.308;30.374;2023-02-18T01:21:03;98829.81;;;0.26;100.00
54407;BME280;40313;50.308;30.374;2023-02-18T01:23:32;98828.06;;;0.27;100.00
54407;BME280;40313;50.308;30.374;2023-02-18T01:25:59;98803.34;;;0.26;100.00
54407;BME280;40313;50.308;30.374;2023-02-18T01:28:25;98800.78;;;0.26;100.00
54407;BME280;40313;50.308;30.374;2023-02-18T01:30:53;98809.25;;;0.28;100.00
54407;BME280;40313;50.308;30.374;2023-02-18T01:33:20;98783.63;;;0.26;100.00
54407;BME280;40313;50.308;30.374;2023-02-18T01:35:47;98781.84;;;0.28;100.00
54407;BME280;40313;50.308;30.374;2023-02-18T01:38:14;98770.72;;;0.29;100.00
54407;BME280;40313;50.308;30.374;2023-02-18T01:40:45;98769.00;;;0.30;100.00
54407;BME280;40313;50.308;30.374;2023-02-18T01:43:13;98765.53;;;0.31;100.00
54407;BME280;40313;50.308;30.374;2023-02-18T01:48:37;98739.00;;;0.32;100.00
54407;BME280;40313;50.308;30.374;2023-02-18T01:51:10;98743.28;;;0.31;100.00
54407;BME280;40313;50.308;30.374;2023-02-18T01:53:43;98739.91;;;0.31;100.00
54407;BME280;40313;50.308;30.374;2023-02-18T01:56:15;98726.25;;;0.30;100.00
54407;BME280;40313;50.308;30.374;2023-02-18T01:58:45;98713.47;;;0.29;100.00
54407;BME280;40313;50.308;30.374;2023-02-18T02:01:11;98714.38;;;0.26;100.00
54407;BME280;40313;50.308;30.374;2023-02-18T02:03:39;98713.72;;;0.20;100.00
54407;BME280;40313;50.308;30.374;2023-02-18T02:06:08;98707.19;;;0.09;100.00
54407;BME280;40313;50.308;30.374;2023-02-18T02:08:39;98700.53;;;0.02;100.00
54407;BME280;40313;50.308;30.374;2023-02-18T02:11:15;98685.25;;;-0.01;100.00
54407;BME280;40313;50.308;30.374;2023-02-18T02:13:49;98681.03;;;-0.04;100.00
54407;BME280;40313;50.308;30.374;2023-02-18T02:16:23;98680.22;;;-0.04;100.00
54407;BME280;40313;50.308;30.374;2023-02-18T02:18:55;98674.31;;;-0.08;100.00
54407;BME280;40313;50.308;30.374;2023-02-18T02:26:57;98647.28;;;-0.18;100.00
54407;BME280;40313;50.308;30.374;2023-02-18T02:32:43;98618.47;;;-0.26;100.00
54407;BME280;40313;50.308;30.374;2023-02-18T02:35:14;98624.41;;;-0.26;100.00
54407;BME280;40313;50.308;30.374;2023-02-18T02:37:48;98619.38;;;-0.29;100.00
54407;BME280;40313;50.308;30.374;2023-02-18T02:40:20;98611.69;;;-0.29;100.00
54407;BME280;40313;50.308;30.374;2023-02-18T02:42:57;98600.56;;;-0.28;100.00
54407;BME280;40313;50.308;30.374;2023-02-18T02:45:32;98597.91;;;-0.25;100.00
54407;BME280;40313;50.308;30.374;2023-02-18T02:48:04;98590.16;;;-0.23;100.00
54407;BME280;40313;50.308;30.374;2023-02-18T02:50:37;98588.38;;;-0.20;100.00
54407;BME280;40313;50.308;30.374;2023-02-18T02:53:08;98578.06;;;-0.18;100.00
54407;BME280;40313;50.308;30.374;2023-02-18T02:55:36;98573.78;;;-0.18;100.00
54407;BME280;40313;50.308;30.374;2023-02-18T02:58:02;98566.09;;;-0.18;100.00
54407;BME280;40313;50.308;30.374;2023-02-18T03:00:31;98557.53;;;-0.16;100.00
54407;BME280;40313;50.308;30.374;2023-02-18T03:03:06;98549.72;;;-0.13;100.00
54407;BME280;40313;50.308;30.374;2023-02-18T03:05:40;98545.44;;;-0.13;100.00
54407;BME280;40313;50.308;30.374;2023-02-18T03:08:12;98547.06;;;-0.10;100.00
54407;BME280;40313;50.308;30.374;2023-02-18T03:10:45;98538.50;;;-0.09;100.00
54407;BME280;40313;50.308;30.374;2023-02-18T03:13:15;98541.84;;;-0.07;100.00
54407;BME280;40313;50.308;30.374;2023-02-18T03:15:46;98540.09;;;-0.05;100.00
54407;BME280;40313;50.308;30.374;2023-02-18T03:18:15;98540.00;;;-0.02;100.00
54407;BME280;40313;50.308;30.374;2023-02-18T03:20:46;98533.94;;;0.01;100.00
54407;BME280;40313;50.308;30.374;2023-02-18T03:23:16;98527.88;;;0.03;100.00
54407;BME280;40313;50.308;30.374;2023-02-18T03:25:47;98513.25;;;0.05;100.00
54407;BME280;40313;50.308;30.374;2023-02-18T03:28:16;98509.81;;;0.06;100.00
54407;BME280;40313;50.308;30.374;2023-02-18T03:30:45;98505.47;;;0.08;100.00
54407;BME280;40313;50.308;30.374;2023-02-18T03:33:13;98504.53;;;0.11;100.00
54407;BME280;40313;50.308;30.374;2023-02-18T03:35:41;98495.91;;;0.13;100.00
54407;BME280;40313;50.308;30.374;2023-02-18T03:38:11;98501.81;;;0.15;100.00
54407;BME280;40313;50.308;30.374;2023-02-18T03:40:39;98494.94;;;0.17;100.00
54407;BME280;40313;50.308;30.374;2023-02-18T03:43:05;98499.16;;;0.19;100.00
54407;BME280;40313;50.308;30.374;2023-02-18T03:45:32;98483.75;;;0.20;100.00
54407;BME280;40313;50.308;30.374;2023-02-18T03:47:58;98476.81;;;0.22;100.00
54407;BME280;40313;50.308;30.374;2023-02-18T03:50:24;98466.50;;;0.24;100.00
54407;BME280;40313;50.308;30.374;2023-02-18T03:52:50;98455.38;;;0.25;100.00
54407;BME280;40313;50.308;30.374;2023-02-18T03:55:18;98451.94;;;0.26;100.00
54407;BME280;40313;50.308;30.374;2023-02-18T03:57:45;98449.31;;;0.27;100.00
54407;BME280;40313;50.308;30.374;2023-02-18T04:00:11;98433.88;;;0.29;100.00
54407;BME280;40313;50.308;30.374;2023-02-18T04:02:38;98436.38;;;0.30;100.00
54407;BME280;40313;50.308;30.374;2023-02-18T04:05:04;98428.63;;;0.32;100.00
54407;BME280;40313;50.308;30.374;2023-02-18T04:07:31;98429.50;;;0.31;100.00
54407;BME280;40313;50.308;30.374;2023-02-18T04:09:57;98425.19;;;0.33;100.00
54407;BME280;40313;50.308;30.374;2023-02-18T04:12:25;98417.50;;;0.31;100.00
54407;BME280;40313;50.308;30.374;2023-02-18T04:14:52;98401.19;;;0.34;100.00
54407;BME280;40313;50.308;30.374;2023-02-18T04:17:18;98407.94;;;0.37;100.00
54407;BME280;40313;50.308;30.374;2023-02-18T04:19:45;98395.06;;;0.38;100.00
54407;BME280;40313;50.308;30.374;2023-02-18T04:22:11;98389.03;;;0.39;100.00
54407;BME280;40313;50.308;30.374;2023-02-18T04:24:38;98383.78;;;0.42;100.00
54407;BME280;40313;50.308;30.374;2023-02-18T04:27:04;98377.78;;;0.43;100.00
54407;BME280;40313;50.308;30.374;2023-02-18T04:29:32;98370.84;;;0.45;100.00
54407;BME280;40313;50.308;30.374;2023-02-18T04:31:59;98369.91;;;0.48;100.00
54407;BME280;40313;50.308;30.374;2023-02-18T04:34:25;98365.53;;;0.51;100.00
54407;BME280;40313;50.308;30.374;2023-02-18T04:36:52;98355.16;;;0.55;100.00
54407;BME280;40313;50.308;30.374;2023-02-18T04:39:18;98341.31;;;0.59;100.00
54407;BME280;40313;50.308;30.374;2023-02-18T04:41:45;98342.09;;;0.61;100.00
54407;BME280;40313;50.308;30.374;2023-02-18T04:44:11;98330.94;;;0.62;100.00
54407;BME280;40313;50.308;30.374;2023-02-18T04:46:39;98335.94;;;0.65;100.00
54407;BME280;40313;50.308;30.374;2023-02-18T04:49:06;98329.88;;;0.67;100.00
54407;BME280;40313;50.308;30.374;2023-02-18T04:51:32;98332.38;;;0.69;100.00
54407;BME280;40313;50.308;30.374;2023-02-18T04:53:59;98327.13;;;0.72;100.00
54407;BME280;40313;50.308;30.374;2023-02-18T04:56:25;98316.75;;;0.75;100.00
54407;BME280;40313;50.308;30.374;2023-02-18T04:58:52;98298.72;;;0.77;100.00
54407;BME280;40313;50.308;30.374;2023-02-18T05:01:18;98306.22;;;0.81;100.00
54407;BME280;40313;50.308;30.374;2023-02-18T05:03:46;98305.28;;;0.84;100.00
54407;BME280;40313;50.308;30.374;2023-02-18T05:06:13;98306.00;;;0.88;100.00
54407;BME280;40313;50.308;30.374;2023-02-18T05:08:39;98301.56;;;0.91;100.00
54407;BME280;40313;50.308;30.374;2023-02-18T05:11:06;98302.31;;;0.95;100.00
54407;BME280;40313;50.308;30.374;2023-02-18T05:13:33;98285.91;;;0.99;100.00
54407;BME280;40313;50.308;30.374;2023-02-18T05:16:00;98258.41;;;1.01;100.00
54407;BME280;40313;50.308;30.374;2023-02-18T05:18:26;98268.50;;;1.06;100.00
54407;BME280;40313;50.308;30.374;2023-02-18T05:20:54;98272.63;;;1.10;100.00
54407;BME280;40313;50.308;30.374;2023-02-18T05:23:21;98273.34;;;1.13;100.00
54407;BME280;40313;50.308;30.374;2023-02-18T05:25:47;98268.91;;;1.17;100.00
54407;BME280;40313;50.308;30.374;2023-02-18T05:28:13;98266.19;;;1.22;100.00
54407;BME280;40313;50.308;30.374;2023-02-18T05:30:40;98276.31;;;1.25;100.00
54407;BME280;40313;50.308;30.374;2023-02-18T05:33:07;98274.44;;;1.28;100.00
54407;BME280;40313;50.308;30.374;2023-02-18T05:35:33;98272.53;;;1.33;100.00
54407;BME280;40313;50.308;30.374;2023-02-18T05:38:01;98249.22;;;1.38;100.00
54407;BME280;40313;50.308;30.374;2023-02-18T05:40:27;98254.94;;;1.45;100.00
54407;BME280;40313;50.308;30.374;2023-02-18T05:42:54;98260.66;;;1.51;100.00
54407;BME280;40313;50.308;30.374;2023-02-18T05:45:21;98256.88;;;1.60;100.00
54407;BME280;40313;50.308;30.374;2023-02-18T05:47:47;98247.16;;;1.67;100.00
54407;BME280;40313;50.308;30.374;2023-02-18T05:50:14;98253.56;;;1.77;100.00
54407;BME280;40313;50.308;30.374;2023-02-18T05:52:40;98254.09;;;1.85;100.00
54407;BME280;40313;50.308;30.374;2023-02-18T05:55:08;98240.91;;;1.93;100.00
54407;BME280;40313;50.308;30.374;2023-02-18T05:57:35;98242.38;;;1.99;100.00
54407;BME280;40313;50.308;30.374;2023-02-18T06:00:02;98231.00;;;2.04;100.00
54407;BME280;40313;50.308;30.374;2023-02-18T06:02:29;98231.59;;;2.10;100.00
54407;BME280;40313;50.308;30.374;2023-02-18T06:04:55;98240.84;;;2.14;100.00
54407;BME280;40313;50.308;30.374;2023-02-18T06:07:22;98236.47;;;2.16;100.00
54407;BME280;40313;50.308;30.374;2023-02-18T06:09:48;98236.34;;;2.19;100.00
54407;BME280;40313;50.308;30.374;2023-02-18T06:12:16;98237.03;;;2.22;100.00
54407;BME280;40313;50.308;30.374;2023-02-18T06:14:43;98244.47;;;2.29;100.00
54407;BME280;40313;50.308;30.374;2023-02-18T06:17:10;98248.56;;;2.33;100.00
54407;BME280;40313;50.308;30.374;2023-02-18T06:19:37;98229.53;;;2.37;100.00
54407;BME280;40313;50.308;30.374;2023-02-18T06:22:04;98240.22;;;2.47;100.00
54407;BME280;40313;50.308;30.374;2023-02-18T06:24:31;98233.97;;;2.52;100.00
54407;BME280;40313;50.308;30.374;2023-02-18T06:26:57;98232.84;;;2.58;100.00
54407;BME280;40313;50.308;30.374;2023-02-18T06:29:25;98223.94;;;2.65;100.00
54407;BME280;40313;50.308;30.374;2023-02-18T06:31:53;98231.28;;;2.73;100.00
54407;BME280;40313;50.308;30.374;2023-02-18T06:34:20;98230.72;;;2.85;100.00
54407;BME280;40313;50.308;30.374;2023-02-18T06:36:46;98224.13;;;2.97;100.00
54407;BME280;40313;50.308;30.374;2023-02-18T06:39:12;98219.38;;;3.07;100.00
54407;BME280;40313;50.308;30.374;2023-02-18T06:41:39;98217.44;;;3.12;100.00
54407;BME280;40313;50.308;30.374;2023-02-18T06:44:05;98216.22;;;3.19;100.00
54407;BME280;40313;50.308;30.374;2023-02-18T06:46:33;98207.03;;;3.31;100.00
54407;BME280;40313;50.308;30.374;2023-02-18T06:49:00;98209.38;;;3.36;100.00
54407;BME280;40313;50.308;30.374;2023-02-18T06:51:26;98207.25;;;3.44;100.00
54407;BME280;40313;50.308;30.374;2023-02-18T06:53:52;98198.09;;;3.56;100.00
54407;BME280;40313;50.308;30.374;2023-02-18T06:56:19;98194.34;;;3.61;100.00
54407;BME280;40313;50.308;30.374;2023-02-18T06:58:45;98195.22;;;3.78;100.00
54407;BME280;40313;50.308;30.374;2023-02-18T07:01:12;98195.50;;;3.89;100.00
54407;BME280;40313;50.308;30.374;2023-02-18T07:03:39;98195.72;;;4.18;100.00
54407;BME280;40313;50.308;30.374;2023-02-18T07:06:06;98203.72;;;4.45;100.00
54407;BME280;40313;50.308;30.374;2023-02-18T07:08:32;98207.13;;;4.78;100.00
54407;BME280;40313;50.308;30.374;2023-02-18T07:11:00;98208.72;;;5.11;100.00
54407;BME280;40313;50.308;30.374;2023-02-18T07:13:26;98212.09;;;5.27;100.00
54407;BME280;40313;50.308;30.374;2023-02-18T07:15:53;98219.00;;;5.27;100.00
54407;BME280;40313;50.308;30.374;2023-02-18T07:18:19;98229.13;;;5.15;100.00
54407;BME280;40313;50.308;30.374;2023-02-18T07:20:47;98233.88;;;5.07;100.00
54407;BME280;40313;50.308;30.374;2023-02-18T07:23:13;98228.66;;;5.09;100.00
54407;BME280;40313;50.308;30.374;2023-02-18T07:25:39;98243.59;;;5.04;100.00
54407;BME280;40313;50.308;30.374;2023-02-18T07:28:06;98260.44;;;4.95;100.00
54407;BME280;40313;50.308;30.374;2023-02-18T07:30:32;98256.78;;;4.83;100.00
54407;BME280;40313;50.308;30.374;2023-02-18T07:32:58;98246.13;;;4.73;100.00
54407;BME280;40313;50.308;30.374;2023-02-18T07:35:25;98249.63;;;4.56;100.00
54407;BME280;40313;50.308;30.374;2023-02-18T07:37:52;98245.53;;;4.52;100.00
54407;BME280;40313;50.308;30.374;2023-02-18T07:40:20;98261.94;;;4.51;100.00
54407;BME280;40313;50.308;30.374;2023-02-18T07:42:47;98274.75;;;4.37;100.00
54407;BME280;40313;50.308;30.374;2023-02-18T07:45:14;98286.31;;;4.29;100.00
54407;BME280;40313;50.308;30.374;2023-02-18T07:47:40;98280.56;;;4.24;100.00
54407;BME280;40313;50.308;30.374;2023-02-18T07:50:07;98286.53;;;4.09;100.00
54407;BME280;40313;50.308;30.374;2023-02-18T07:52:34;98232.22;;;3.94;100.00
54407;BME280;40313;50.308;30.374;2023-02-18T07:55:01;98265.31;;;3.86;100.00
54407;BME280;40313;50.308;30.374;2023-02-18T07:57:28;98258.78;;;3.96;100.00
54407;BME280;40313;50.308;30.374;2023-02-18T07:59:54;98253.72;;;4.11;100.00
54407;BME280;40313;50.308;30.374;2023-02-18T08:02:21;98245.25;;;4.25;100.00
54407;BME280;40313;50.308;30.374;2023-02-18T08:04:48;98227.38;;;4.38;100.00
54407;BME280;40313;50.308;30.374;2023-02-18T08:07:15;98219.97;;;4.47;100.00
54407;BME280;40313;50.308;30.374;2023-02-18T08:09:42;98209.56;;;4.49;100.00
54407;BME280;40313;50.308;30.374;2023-02-18T08:12:10;98184.22;;;4.56;100.00
54407;BME280;40313;50.308;30.374;2023-02-18T08:14:36;98192.53;;;4.77;100.00
54407;BME280;40313;50.308;30.374;2023-02-18T08:17:02;98189.44;;;4.86;100.00
54407;BME280;40313;50.308;30.374;2023-02-18T08:19:28;98177.75;;;4.95;100.00
54407;BME280;40313;50.308;30.374;2023-02-18T08:21:55;98190.03;;;5.06;100.00
54407;BME280;40313;50.308;30.374;2023-02-18T08:24:21;98187.69;;;5.17;100.00
54407;BME280;40313;50.308;30.374;2023-02-18T08:26:47;98186.78;;;5.32;100.00
54407;BME280;40313;50.308;30.374;2023-02-18T08:29:15;98187.56;;;5.34;100.00
54407;BME280;40313;50.308;30.374;2023-02-18T08:31:42;98190.88;;;5.36;100.00
54407;BME280;40313;50.308;30.374;2023-02-18T08:34:08;98194.84;;;5.42;100.00
54407;BME280;40313;50.308;30.374;2023-02-18T08:36:34;98189.78;;;5.41;100.00
54407;BME280;40313;50.308;30.374;2023-02-18T08:39:01;98186.28;;;5.42;100.00
54407;BME280;40313;50.308;30.374;2023-02-18T08:41:27;98200.13;;;5.41;100.00
54407;BME280;40313;50.308;30.374;2023-02-18T08:43:54;98197.34;;;5.44;100.00
54407;BME280;40313;50.308;30.374;2023-02-18T08:46:21;98198.38;;;5.56;100.00
54407;BME280;40313;50.308;30.374;2023-02-18T08:48:48;98191.47;;;5.70;100.00
54407;BME280;40313;50.308;30.374;2023-02-18T08:51:14;98193.50;;;5.80;100.00
54407;BME280;40313;50.308;30.374;2023-02-18T08:53:42;98189.81;;;5.84;100.00
54407;BME280;40313;50.308;30.374;2023-02-18T08:56:10;98186.66;;;5.93;100.00
54407;BME280;40313;50.308;30.374;2023-02-18T08:58:37;98196.38;;;5.89;100.00
54407;BME280;40313;50.308;30.374;2023-02-18T09:01:04;98198.31;;;5.86;100.00
54407;BME280;40313;50.308;30.374;2023-02-18T09:03:32;98194.16;;;5.83;100.00
54407;BME280;40313;50.308;30.374;2023-02-18T09:05:59;98194.59;;;5.90;100.00
54407;BME280;40313;50.308;30.374;2023-02-18T09:08:25;98203.31;;;5.89;100.00
54407;BME280;40313;50.308;30.374;2023-02-18T09:10:53;98206.53;;;5.93;100.00
54407;BME280;40313;50.308;30.374;2023-02-18T09:13:20;98204.69;;;5.95;100.00
54407;BME280;40313;50.308;30.374;2023-02-18T09:15:54;98207.75;;;6.01;100.00
54407;BME280;40313;50.308;30.374;2023-02-18T09:18:21;98202.41;;;6.04;100.00
54407;BME280;40313;50.308;30.374;2023-02-18T09:20:48;98191.78;;;6.09;100.00
54407;BME280;40313;50.308;30.374;2023-02-18T09:23:15;98202.41;;;6.19;100.00
54407;BME280;40313;50.308;30.374;2023-02-18T09:25:42;98203.03;;;6.22;100.00
54407;BME280;40313;50.308;30.374;2023-02-18T09:28:08;98203.75;;;6.39;100.00
54407;BME280;40313;50.308;30.374;2023-02-18T09:30:34;98189.28;;;6.49;100.00
54407;BME280;40313;50.308;30.374;2023-02-18T09:33:01;98199.25;;;6.55;100.00
54407;BME280;40313;50.308;30.374;2023-02-18T09:35:27;98211.75;;;6.63;100.00
54407;BME280;40313;50.308;30.374;2023-02-18T09:37:55;98191.03;;;6.63;100.00
54407;BME280;40313;50.308;30.374;2023-02-18T09:40:23;98204.06;;;6.62;100.00
54407;BME280;40313;50.308;30.374;2023-02-18T09:42:51;98203.53;;;6.56;100.00
54407;BME280;40313;50.308;30.374;2023-02-18T09:45:19;98210.31;;;6.45;100.00
54407;BME280;40313;50.308;30.374;2023-02-18T09:47:45;98199.69;;;6.35;100.00
54407;BME280;40313;50.308;30.374;2023-02-18T09:50:13;98214.31;;;6.36;100.00
54407;BME280;40313;50.308;30.374;2023-02-18T09:52:42;98204.56;;;6.39;100.00
54407;BME280;40313;50.308;30.374;2023-02-18T09:55:18;98202.91;;;6.38;100.00
54407;BME280;40313;50.308;30.374;2023-02-18T09:57:45;98201.44;;;6.34;100.00
54407;BME280;40313;50.308;30.374;2023-02-18T10:00:13;98202.91;;;6.38;100.00
54407;BME280;40313;50.308;30.374;2023-02-18T10:02:40;98198.75;;;6.50;100.00
54407;BME280;40313;50.308;30.374;2023-02-18T10:05:08;98197.16;;;6.48;100.00
54407;BME280;40313;50.308;30.374;2023-02-18T10:07:36;98202.69;;;6.56;100.00
54407;BME280;40313;50.308;30.374;2023-02-18T10:10:10;98201.84;;;6.55;100.00
54407;BME280;40313;50.308;30.374;2023-02-18T10:12:42;98198.91;;;6.62;100.00
54407;BME280;40313;50.308;30.374;2023-02-18T10:15:10;98186.34;;;6.68;100.00
54407;BME280;40313;50.308;30.374;2023-02-18T10:17:42;98202.31;;;6.89;100.00
54407;BME280;40313;50.308;30.374;2023-02-18T10:20:09;98208.84;;;6.95;100.00
54407;BME280;40313;50.308;30.374;2023-02-18T10:22:37;98191.97;;;7.02;100.00
54407;BME280;40313;50.308;30.374;2023-02-18T10:25:04;98192.41;;;7.09;100.00
54407;BME280;40313;50.308;30.374;2023-02-18T10:27:32;98194.59;;;7.15;100.00
54407;BME280;40313;50.308;30.374;2023-02-18T10:30:08;98201.97;;;7.21;100.00
54407;BME280;40313;50.308;30.374;2023-02-18T10:32:44;98197.84;;;7.32;100.00
54407;BME280;40313;50.308;30.374;2023-02-18T10:35:13;98187.66;;;7.29;100.00
54407;BME280;40313;50.308;30.374;2023-02-18T10:37:45;98183.56;;;7.52;100.00
54407;BME280;40313;50.308;30.374;2023-02-18T10:40:16;98179.59;;;7.59;100.00
54407;BME280;40313;50.308;30.374;2023-02-18T10:42:54;98195.19;;;7.59;100.00
54407;BME280;40313;50.308;30.374;2023-02-18T10:45:30;98190.81;;;7.72;100.00
54407;BME280;40313;50.308;30.374;2023-02-18T10:48:03;98194.75;;;7.65;100.00
54407;BME280;40313;50.308;30.374;2023-02-18T10:50:33;98186.88;;;7.67;100.00
54407;BME280;40313;50.308;30.374;2023-02-18T10:53:01;98191.00;;;7.43;100.00
54407;BME280;40313;50.308;30.374;2023-02-18T10:55:34;98192.50;;;7.07;100.00
54407;BME280;40313;50.308;30.374;2023-02-18T10:58:00;98186.31;;;6.83;100.00
54407;BME280;40313;50.308;30.374;2023-02-18T11:00:32;98193.16;;;6.84;100.00
54407;BME280;40313;50.308;30.374;2023-02-18T11:03:01;98186.94;;;6.86;100.00
54407;BME280;40313;50.308;30.374;2023-02-18T11:05:29;98183.44;;;6.87;100.00
54407;BME280;40313;50.308;30.374;2023-02-18T11:07:56;98191.38;;;6.84;100.00
54407;BME280;40313;50.308;30.374;2023-02-18T11:10:23;98189.94;;;6.80;100.00
54407;BME280;40313;50.308;30.374;2023-02-18T11:12:50;98188.91;;;6.83;100.00
54407;BME280;40313;50.308;30.374;2023-02-18T11:15:21;98186.09;;;6.86;100.00
54407;BME280;40313;50.308;30.374;2023-02-18T11:17:50;98177.91;;;6.79;100.00
54407;BME280;40313;50.308;30.374;2023-02-18T11:20:28;98184.97;;;6.90;100.00
54407;BME280;40313;50.308;30.374;2023-02-18T11:25:37;98174.78;;;7.27;100.00
54407;BME280;40313;50.308;30.374;2023-02-18T11:28:04;98175.63;;;7.28;100.00
54407;BME280;40313;50.308;30.374;2023-02-18T11:30:33;98189.31;;;7.17;100.00
54407;BME280;40313;50.308;30.374;2023-02-18T11:33:03;98192.16;;;6.99;100.00
54407;BME280;40313;50.308;30.374;2023-02-18T11:35:31;98198.59;;;6.94;100.00
54407;BME280;40313;50.308;30.374;2023-02-18T11:37:58;98180.00;;;6.87;100.00
54407;BME280;40313;50.308;30.374;2023-02-18T11:40:27;98188.59;;;6.74;100.00
54407;BME280;40313;50.308;30.374;2023-02-18T11:43:01;98186.59;;;6.51;100.00
54407;BME280;40313;50.308;30.374;2023-02-18T11:45:28;98193.66;;;6.49;100.00
54407;BME280;40313;50.308;30.374;2023-02-18T11:47:58;98186.31;;;6.55;100.00
54407;BME280;40313;50.308;30.374;2023-02-18T11:50:28;98185.03;;;6.75;100.00
54407;BME280;40313;50.308;30.374;2023-02-18T11:52:55;98178.97;;;6.89;100.00
54407;BME280;40313;50.308;30.374;2023-02-18T11:55:25;98190.72;;;6.95;100.00
54407;BME280;40313;50.308;30.374;2023-02-18T11:57:55;98184.41;;;6.99;100.00
54407;BME280;40313;50.308;30.374;2023-02-18T12:00:24;98180.34;;;6.95;100.00
54407;BME280;40313;50.308;30.374;2023-02-18T12:02:55;98185.63;;;6.94;100.00
54407;BME280;40313;50.308;30.374;2023-02-18T12:05:23;98189.16;;;7.05;100.00
54407;BME280;40313;50.308;30.374;2023-02-18T12:07:53;98190.84;;;7.06;100.00
54407;BME280;40313;50.308;30.374;2023-02-18T12:10:22;98176.84;;;7.09;100.00
54407;BME280;40313;50.308;30.374;2023-02-18T12:12:51;98173.94;;;7.14;100.00
54407;BME280;40313;50.308;30.374;2023-02-18T12:15:21;98185.16;;;7.27;100.00
54407;BME280;40313;50.308;30.374;2023-02-18T12:17:53;98189.63;;;7.25;100.00
54407;BME280;40313;50.308;30.374;2023-02-18T12:20:30;98192.66;;;7.32;100.00
54407;BME280;40313;50.308;30.374;2023-02-18T12:23:04;98191.47;;;7.23;100.00
54407;BME280;40313;50.308;30.374;2023-02-18T12:25:35;98199.69;;;7.17;100.00
54407;BME280;40313;50.308;30.374;2023-02-18T12:28:09;98177.44;;;7.00;100.00
54407;BME280;40313;50.308;30.374;2023-02-18T12:30:52;98204.66;;;6.80;100.00
54407;BME280;40313;50.308;30.374;2023-02-18T12:33:30;98211.06;;;6.74;100.00
54407;BME280;40313;50.308;30.374;2023-02-18T12:36:09;98205.97;;;6.72;100.00
54407;BME280;40313;50.308;30.374;2023-02-18T12:38:54;98199.56;;;6.78;100.00
54407;BME280;40313;50.308;30.374;2023-02-18T12:41:39;98194.13;;;6.68;100.00
54407;BME280;40313;50.308;30.374;2023-02-18T12:44:23;98210.91;;;6.63;100.00
54407;BME280;40313;50.308;30.374;2023-02-18T13:38:54;98236.00;;;5.76;100.00
54407;BME280;40313;50.308;30.374;2023-02-18T13:41:24;98247.19;;;5.76;100.00
54407;BME280;40313;50.308;30.374;2023-02-18T13:43:51;98253.47;;;5.72;100.00
54407;BME280;40313;50.308;30.374;2023-02-18T13:46:19;98245.22;;;5.65;100.00
54407;BME280;40313;50.308;30.374;2023-02-18T13:48:48;98257.25;;;5.66;100.00
54407;BME280;40313;50.308;30.374;2023-02-18T13:51:17;98225.28;;;5.53;100.00
54407;BME280;40313;50.308;30.374;2023-02-18T13:54:02;98261.41;;;5.54;100.00
54407;BME280;40313;50.308;30.374;2023-02-18T13:56:32;98273.03;;;5.47;100.00
54407;BME280;40313;50.308;30.374;2023-02-18T13:59:01;98257.50;;;5.47;100.00
54407;BME280;40313;50.308;30.374;2023-02-18T14:01:37;98267.84;;;5.47;100.00